sensor_id;sensor_type;location;lat;lon;timestamp;temperature;humidity
41220;DHT22;26951;47.338;9.196;2022-12-07T00:00:19;1.10;73.50
41220;DHT22;26951;47.338;9.196;2022-12-07T00:03:03;1.10;73.80
41220;DHT22;26951;47.338;9.196;2022-12-07T00:05:47;1.10;74.00
41220;DHT22;26951;47.338;9.196;2022-12-07T00:08:32;1.10;74.20
41220;DHT22;26951;47.338;9.196;2022-12-07T00:11:20;1.10;74.20
41220;DHT22;26951;47.338;9.196;2022-12-07T00:14:09;1.10;74.30
41220;DHT22;26951;47.338;9.196;2022-12-07T00:16:54;1.10;74.40
41220;DHT22;26951;47.338;9.196;2022-12-07T00:19:38;1.10;74.30
41220;DHT22;26951;47.338;9.196;2022-12-07T00:22:22;1.10;74.30
41220;DHT22;26951;47.338;9.196;2022-12-07T00:25:06;1.20;74.30
41220;DHT22;26951;47.338;9.196;2022-12-07T00:27:53;1.20;74.20
41220;DHT22;26951;47.338;9.196;2022-12-07T00:30:39;1.20;74.20
41220;DHT22;26951;47.338;9.196;2022-12-07T00:33:23;1.20;74.90
41220;DHT22;26951;47.338;9.196;2022-12-07T00:36:09;1.20;75.00
41220;DHT22;26951;47.338;9.196;2022-12-07T00:38:55;1.20;75.00
41220;DHT22;26951;47.338;9.196;2022-12-07T00:41:41;1.20;74.90
41220;DHT22;26951;47.338;9.196;2022-12-07T00:44:25;1.20;74.70
41220;DHT22;26951;47.338;9.196;2022-12-07T00:47:09;1.20;74.80
41220;DHT22;26951;47.338;9.196;2022-12-07T00:49:53;1.20;74.70
41220;DHT22;26951;47.338;9.196;2022-12-07T00:52:38;1.20;74.20
41220;DHT22;26951;47.338;9.196;2022-12-07T00:55:22;1.20;74.10
41220;DHT22;26951;47.338;9.196;2022-12-07T00:58:06;1.10;74.00
41220;DHT22;26951;47.338;9.196;2022-12-07T01:00:50;1.10;74.40
41220;DHT22;26951;47.338;9.196;2022-12-07T01:03:35;1.10;74.50
41220;DHT22;26951;47.338;9.196;2022-12-07T01:06:21;1.10;74.70
41220;DHT22;26951;47.338;9.196;2022-12-07T01:09:06;1.10;74.70
41220;DHT22;26951;47.338;9.196;2022-12-07T01:11:50;1.10;74.40
41220;DHT22;26951;47.338;9.196;2022-12-07T01:14:34;1.10;74.40
41220;DHT22;26951;47.338;9.196;2022-12-07T01:17:19;1.10;74.10
41220;DHT22;26951;47.338;9.196;2022-12-07T01:20:03;1.10;74.20
41220;DHT22;26951;47.338;9.196;2022-12-07T01:22:47;1.10;74.30
41220;DHT22;26951;47.338;9.196;2022-12-07T01:25:32;1.10;74.30
41220;DHT22;26951;47.338;9.196;2022-12-07T01:28:16;1.10;74.50
41220;DHT22;26951;47.338;9.196;2022-12-07T01:31:06;1.10;74.10
41220;DHT22;26951;47.338;9.196;2022-12-07T01:33:56;1.10;74.40
41220;DHT22;26951;47.338;9.196;2022-12-07T01:36:40;1.10;74.40
41220;DHT22;26951;47.338;9.196;2022-12-07T01:39:24;1.10;74.40
41220;DHT22;26951;47.338;9.196;2022-12-07T01:42:12;1.10;74.40
41220;DHT22;26951;47.338;9.196;2022-12-07T01:45:31;1.10;74.20
41220;DHT22;26951;47.338;9.196;2022-12-07T01:48:24;1.10;74.50
41220;DHT22;26951;47.338;9.196;2022-12-07T01:51:11;1.10;74.40
41220;DHT22;26951;47.338;9.196;2022-12-07T01:53:57;1.10;74.70
41220;DHT22;26951;47.338;9.196;2022-12-07T01:56:45;1.10;74.40
41220;DHT22;26951;47.338;9.196;2022-12-07T01:59:30;1.20;73.50
41220;DHT22;26951;47.338;9.196;2022-12-07T02:02:20;1.10;73.80
41220;DHT22;26951;47.338;9.196;2022-12-07T02:05:06;1.10;74.30
41220;DHT22;26951;47.338;9.196;2022-12-07T02:07:51;1.10;74.20
41220;DHT22;26951;47.338;9.196;2022-12-07T02:10:36;1.00;74.70
41220;DHT22;26951;47.338;9.196;2022-12-07T02:13:23;1.00;74.50
41220;DHT22;26951;47.338;9.196;2022-12-07T02:19:38;1.00;73.80
41220;DHT22;26951;47.338;9.196;2022-12-07T02:28:35;1.00;73.30
41220;DHT22;26951;47.338;9.196;2022-12-07T02:31:21;1.00;73.80
41220;DHT22;26951;47.338;9.196;2022-12-07T02:34:12;1.00;74.20
41220;DHT22;26951;47.338;9.196;2022-12-07T02:37:08;1.00;74.20
41220;DHT22;26951;47.338;9.196;2022-12-07T02:40:22;0.90;74.30
41220;DHT22;26951;47.338;9.196;2022-12-07T02:43:09;1.00;74.30
41220;DHT22;26951;47.338;9.196;2022-12-07T02:46:04;1.00;74.20
41220;DHT22;26951;47.338;9.196;2022-12-07T02:48:50;1.00;74.00
41220;DHT22;26951;47.338;9.196;2022-12-07T02:51:39;0.90;74.20
41220;DHT22;26951;47.338;9.196;2022-12-07T02:54:24;0.90;74.70
41220;DHT22;26951;47.338;9.196;2022-12-07T03:00:16;1.00;74.10
41220;DHT22;26951;47.338;9.196;2022-12-07T03:03:07;1.00;73.90
41220;DHT22;26951;47.338;9.196;2022-12-07T03:08:57;1.00;74.50
41220;DHT22;26951;47.338;9.196;2022-12-07T03:11:50;1.00;75.20
41220;DHT22;26951;47.338;9.196;2022-12-07T03:14:43;1.00;74.50
41220;DHT22;26951;47.338;9.196;2022-12-07T03:17:30;1.00;74.70
41220;DHT22;26951;47.338;9.196;2022-12-07T03:20:18;1.00;74.70
41220;DHT22;26951;47.338;9.196;2022-12-07T03:23:06;1.00;74.20
41220;DHT22;26951;47.338;9.196;2022-12-07T03:25:56;1.10;73.90
41220;DHT22;26951;47.338;9.196;2022-12-07T03:28:47;1.10;74.10
41220;DHT22;26951;47.338;9.196;2022-12-07T03:31:39;1.10;73.80
41220;DHT22;26951;47.338;9.196;2022-12-07T03:34:31;1.10;73.50
41220;DHT22;26951;47.338;9.196;2022-12-07T03:40:28;1.10;73.40
41220;DHT22;26951;47.338;9.196;2022-12-07T03:43:13;1.10;73.20
41220;DHT22;26951;47.338;9.196;2022-12-07T03:49:19;1.10;72.90
41220;DHT22;26951;47.338;9.196;2022-12-07T03:55:20;1.10;73.30
41220;DHT22;26951;47.338;9.196;2022-12-07T03:58:09;1.00;73.60
41220;DHT22;26951;47.338;9.196;2022-12-07T04:00:55;1.10;73.50
41220;DHT22;26951;47.338;9.196;2022-12-07T04:03:39;1.10;73.80
41220;DHT22;26951;47.338;9.196;2022-12-07T04:06:24;1.10;73.20
41220;DHT22;26951;47.338;9.196;2022-12-07T04:09:08;1.10;73.30
41220;DHT22;26951;47.338;9.196;2022-12-07T04:11:52;1.10;73.50
41220;DHT22;26951;47.338;9.196;2022-12-07T04:14:36;1.00;73.30
41220;DHT22;26951;47.338;9.196;2022-12-07T04:17:20;1.00;73.50
41220;DHT22;26951;47.338;9.196;2022-12-07T04:20:05;1.00;73.50
41220;DHT22;26951;47.338;9.196;2022-12-07T04:22:50;1.00;74.00
41220;DHT22;26951;47.338;9.196;2022-12-07T04:25:34;1.00;74.40
41220;DHT22;26951;47.338;9.196;2022-12-07T04:28:18;1.00;73.90
41220;DHT22;26951;47.338;9.196;2022-12-07T04:31:02;1.00;74.00
41220;DHT22;26951;47.338;9.196;2022-12-07T04:33:46;1.10;73.90
41220;DHT22;26951;47.338;9.196;2022-12-07T04:36:31;1.10;74.00
41220;DHT22;26951;47.338;9.196;2022-12-07T04:39:24;1.10;73.70
41220;DHT22;26951;47.338;9.196;2022-12-07T04:42:09;1.10;73.60
41220;DHT22;26951;47.338;9.196;2022-12-07T04:44:53;1.10;73.00
41220;DHT22;26951;47.338;9.196;2022-12-07T04:47:37;1.10;73.50
41220;DHT22;26951;47.338;9.196;2022-12-07T04:50:21;1.10;73.70
41220;DHT22;26951;47.338;9.196;2022-12-07T04:53:06;1.00;73.90
41220;DHT22;26951;47.338;9.196;2022-12-07T04:55:50;1.10;74.20
41220;DHT22;26951;47.338;9.196;2022-12-07T04:58:34;1.10;74.00
41220;DHT22;26951;47.338;9.196;2022-12-07T05:01:19;1.10;73.80
41220;DHT22;26951;47.338;9.196;2022-12-07T05:04:03;1.10;73.80
41220;DHT22;26951;47.338;9.196;2022-12-07T05:06:48;1.10;74.00
41220;DHT22;26951;47.338;9.196;2022-12-07T05:09:32;1.10;74.20
41220;DHT22;26951;47.338;9.196;2022-12-07T05:12:16;1.10;73.80
41220;DHT22;26951;47.338;9.196;2022-12-07T05:15:00;1.10;73.80
41220;DHT22;26951;47.338;9.196;2022-12-07T05:17:44;1.10;73.80
41220;DHT22;26951;47.338;9.196;2022-12-07T05:20:28;1.10;74.00
41220;DHT22;26951;47.338;9.196;2022-12-07T05:23:12;1.10;74.10
41220;DHT22;26951;47.338;9.196;2022-12-07T05:25:57;1.10;74.40
41220;DHT22;26951;47.338;9.196;2022-12-07T05:28:41;1.10;74.40
41220;DHT22;26951;47.338;9.196;2022-12-07T05:31:26;1.10;74.80
41220;DHT22;26951;47.338;9.196;2022-12-07T05:34:11;1.10;74.70
41220;DHT22;26951;47.338;9.196;2022-12-07T05:36:55;1.10;74.90
41220;DHT22;26951;47.338;9.196;2022-12-07T05:39:39;1.10;74.60
41220;DHT22;26951;47.338;9.196;2022-12-07T05:42:26;1.10;74.80
41220;DHT22;26951;47.338;9.196;2022-12-07T05:45:11;1.10;74.70
41220;DHT22;26951;47.338;9.196;2022-12-07T05:47:55;1.10;74.40
41220;DHT22;26951;47.338;9.196;2022-12-07T05:50:39;1.20;74.60
41220;DHT22;26951;47.338;9.196;2022-12-07T05:53:23;1.20;74.40
41220;DHT22;26951;47.338;9.196;2022-12-07T05:56:07;1.20;74.30
41220;DHT22;26951;47.338;9.196;2022-12-07T05:58:51;1.20;74.30
41220;DHT22;26951;47.338;9.196;2022-12-07T06:02:00;1.20;74.50
41220;DHT22;26951;47.338;9.196;2022-12-07T06:04:46;1.20;74.10
41220;DHT22;26951;47.338;9.196;2022-12-07T06:07:30;1.20;74.10
41220;DHT22;26951;47.338;9.196;2022-12-07T06:10:14;1.20;74.00
41220;DHT22;26951;47.338;9.196;2022-12-07T06:12:59;1.20;73.60
41220;DHT22;26951;47.338;9.196;2022-12-07T06:15:43;1.20;73.60
41220;DHT22;26951;47.338;9.196;2022-12-07T06:18:28;1.20;74.00
41220;DHT22;26951;47.338;9.196;2022-12-07T06:21:12;1.20;74.00
41220;DHT22;26951;47.338;9.196;2022-12-07T06:23:56;1.20;73.70
41220;DHT22;26951;47.338;9.196;2022-12-07T06:26:41;1.20;73.60
41220;DHT22;26951;47.338;9.196;2022-12-07T06:29:25;1.30;73.60
41220;DHT22;26951;47.338;9.196;2022-12-07T06:32:09;1.30;73.30
41220;DHT22;26951;47.338;9.196;2022-12-07T06:34:54;1.30;73.10
41220;DHT22;26951;47.338;9.196;2022-12-07T06:37:38;1.20;73.50
41220;DHT22;26951;47.338;9.196;2022-12-07T06:40:22;1.30;73.60
41220;DHT22;26951;47.338;9.196;2022-12-07T06:43:07;1.30;73.50
41220;DHT22;26951;47.338;9.196;2022-12-07T06:45:51;1.30;73.40
41220;DHT22;26951;47.338;9.196;2022-12-07T06:48:35;1.30;73.10
41220;DHT22;26951;47.338;9.196;2022-12-07T06:51:19;1.30;73.00
41220;DHT22;26951;47.338;9.196;2022-12-07T06:54:04;1.30;72.90
41220;DHT22;26951;47.338;9.196;2022-12-07T06:56:48;1.30;73.00
41220;DHT22;26951;47.338;9.196;2022-12-07T06:59:32;1.30;72.90
41220;DHT22;26951;47.338;9.196;2022-12-07T07:02:16;1.30;73.00
41220;DHT22;26951;47.338;9.196;2022-12-07T07:05:00;1.30;73.00
41220;DHT22;26951;47.338;9.196;2022-12-07T07:07:44;1.40;72.80
41220;DHT22;26951;47.338;9.196;2022-12-07T07:10:29;1.40;73.10
41220;DHT22;26951;47.338;9.196;2022-12-07T07:13:13;1.40;73.10
41220;DHT22;26951;47.338;9.196;2022-12-07T07:15:57;1.40;73.20
41220;DHT22;26951;47.338;9.196;2022-12-07T07:18:41;1.40;73.20
41220;DHT22;26951;47.338;9.196;2022-12-07T07:21:25;1.40;73.20
41220;DHT22;26951;47.338;9.196;2022-12-07T07:24:10;1.40;73.30
41220;DHT22;26951;47.338;9.196;2022-12-07T07:26:54;1.40;73.20
41220;DHT22;26951;47.338;9.196;2022-12-07T07:29:38;1.40;73.30
41220;DHT22;26951;47.338;9.196;2022-12-07T07:32:22;1.40;73.30
41220;DHT22;26951;47.338;9.196;2022-12-07T07:35:06;1.40;73.00
41220;DHT22;26951;47.338;9.196;2022-12-07T07:37:51;1.40;73.30
41220;DHT22;26951;47.338;9.196;2022-12-07T07:40:35;1.40;73.40
41220;DHT22;26951;47.338;9.196;2022-12-07T07:43:19;1.40;73.80
41220;DHT22;26951;47.338;9.196;2022-12-07T07:46:04;1.40;74.20
41220;DHT22;26951;47.338;9.196;2022-12-07T07:48:48;1.40;73.60
41220;DHT22;26951;47.338;9.196;2022-12-07T07:51:32;1.40;73.50
41220;DHT22;26951;47.338;9.196;2022-12-07T07:54:16;1.40;73.40
41220;DHT22;26951;47.338;9.196;2022-12-07T07:57:01;1.50;73.10
41220;DHT22;26951;47.338;9.196;2022-12-07T07:59:45;1.50;73.60
41220;DHT22;26951;47.338;9.196;2022-12-07T08:02:29;1.50;73.70
41220;DHT22;26951;47.338;9.196;2022-12-07T08:05:13;1.50;74.10
41220;DHT22;26951;47.338;9.196;2022-12-07T08:07:58;1.50;74.10
41220;DHT22;26951;47.338;9.196;2022-12-07T08:10:42;1.60;73.90
41220;DHT22;26951;47.338;9.196;2022-12-07T08:13:26;1.50;73.20
41220;DHT22;26951;47.338;9.196;2022-12-07T08:16:10;1.60;72.80
41220;DHT22;26951;47.338;9.196;2022-12-07T08:18:55;1.60;72.30
41220;DHT22;26951;47.338;9.196;2022-12-07T08:21:40;1.60;72.70
41220;DHT22;26951;47.338;9.196;2022-12-07T08:24:24;1.60;73.00
41220;DHT22;26951;47.338;9.196;2022-12-07T08:27:09;1.60;72.90
41220;DHT22;26951;47.338;9.196;2022-12-07T08:29:53;1.60;73.10
41220;DHT22;26951;47.338;9.196;2022-12-07T08:32:37;1.60;73.40
41220;DHT22;26951;47.338;9.196;2022-12-07T08:35:21;1.60;73.80
41220;DHT22;26951;47.338;9.196;2022-12-07T08:38:05;1.60;73.50
41220;DHT22;26951;47.338;9.196;2022-12-07T08:40:54;1.60;73.90
41220;DHT22;26951;47.338;9.196;2022-12-07T08:43:39;1.60;74.10
41220;DHT22;26951;47.338;9.196;2022-12-07T08:49:41;1.60;74.80
41220;DHT22;26951;47.338;9.196;2022-12-07T08:52:27;1.60;75.10
41220;DHT22;26951;47.338;9.196;2022-12-07T08:55:11;1.60;74.30
41220;DHT22;26951;47.338;9.196;2022-12-07T08:57:58;1.60;73.90
41220;DHT22;26951;47.338;9.196;2022-12-07T09:00:43;1.60;73.80
41220;DHT22;26951;47.338;9.196;2022-12-07T09:03:27;1.60;74.30
41220;DHT22;26951;47.338;9.196;2022-12-07T09:06:11;1.70;74.20
41220;DHT22;26951;47.338;9.196;2022-12-07T09:08:58;1.70;74.10
41220;DHT22;26951;47.338;9.196;2022-12-07T09:11:44;1.70;74.30
41220;DHT22;26951;47.338;9.196;2022-12-07T09:14:29;1.80;75.40
41220;DHT22;26951;47.338;9.196;2022-12-07T09:17:13;1.80;74.20
41220;DHT22;26951;47.338;9.196;2022-12-07T09:19:57;1.80;73.80
41220;DHT22;26951;47.338;9.196;2022-12-07T09:22:41;1.70;73.70
41220;DHT22;26951;47.338;9.196;2022-12-07T09:25:26;1.70;73.90
41220;DHT22;26951;47.338;9.196;2022-12-07T09:28:10;1.80;73.80
41220;DHT22;26951;47.338;9.196;2022-12-07T09:30:54;1.80;73.40
41220;DHT22;26951;47.338;9.196;2022-12-07T09:33:38;1.80;73.00
41220;DHT22;26951;47.338;9.196;2022-12-07T09:36:23;1.80;72.90
41220;DHT22;26951;47.338;9.196;2022-12-07T09:39:07;1.80;73.30
41220;DHT22;26951;47.338;9.196;2022-12-07T09:41:52;1.80;73.50
41220;DHT22;26951;47.338;9.196;2022-12-07T09:44:39;1.80;73.60
41220;DHT22;26951;47.338;9.196;2022-12-07T09:47:24;1.80;74.20
41220;DHT22;26951;47.338;9.196;2022-12-07T09:50:26;1.90;73.90
41220;DHT22;26951;47.338;9.196;2022-12-07T09:53:36;1.90;73.60
41220;DHT22;26951;47.338;9.196;2022-12-07T09:56:21;1.90;74.20
41220;DHT22;26951;47.338;9.196;2022-12-07T09:59:05;1.90;74.20
41220;DHT22;26951;47.338;9.196;2022-12-07T10:01:50;1.90;74.30
41220;DHT22;26951;47.338;9.196;2022-12-07T10:04:34;1.90;73.90
41220;DHT22;26951;47.338;9.196;2022-12-07T10:07:18;2.00;74.10
41220;DHT22;26951;47.338;9.196;2022-12-07T10:10:04;2.00;74.20
41220;DHT22;26951;47.338;9.196;2022-12-07T10:13:01;2.00;74.30
41220;DHT22;26951;47.338;9.196;2022-12-07T10:18:36;2.00;73.40
41220;DHT22;26951;47.338;9.196;2022-12-07T10:21:25;2.00;73.60
41220;DHT22;26951;47.338;9.196;2022-12-07T10:24:13;2.00;73.80
41220;DHT22;26951;47.338;9.196;2022-12-07T10:27:00;2.00;74.70
41220;DHT22;26951;47.338;9.196;2022-12-07T10:29:50;2.00;75.20
41220;DHT22;26951;47.338;9.196;2022-12-07T10:32:36;2.10;75.40
41220;DHT22;26951;47.338;9.196;2022-12-07T10:35:30;2.10;75.80
41220;DHT22;26951;47.338;9.196;2022-12-07T10:38:16;2.10;76.20
41220;DHT22;26951;47.338;9.196;2022-12-07T10:41:06;2.20;76.80
41220;DHT22;26951;47.338;9.196;2022-12-07T10:43:53;2.20;76.80
41220;DHT22;26951;47.338;9.196;2022-12-07T10:46:46;2.20;76.40
41220;DHT22;26951;47.338;9.196;2022-12-07T10:49:48;2.20;76.00
41220;DHT22;26951;47.338;9.196;2022-12-07T10:55:32;2.30;75.40
41220;DHT22;26951;47.338;9.196;2022-12-07T11:04:43;2.30;76.30
41220;DHT22;26951;47.338;9.196;2022-12-07T11:13:29;2.30;76.70
41220;DHT22;26951;47.338;9.196;2022-12-07T11:19:52;2.30;76.80
41220;DHT22;26951;47.338;9.196;2022-12-07T11:25:59;2.40;76.90
41220;DHT22;26951;47.338;9.196;2022-12-07T11:29:08;2.40;76.70
41220;DHT22;26951;47.338;9.196;2022-12-07T11:32:09;2.50;76.10
41220;DHT22;26951;47.338;9.196;2022-12-07T11:35:03;2.50;76.00
41220;DHT22;26951;47.338;9.196;2022-12-07T11:37:57;2.50;76.30
41220;DHT22;26951;47.338;9.196;2022-12-07T11:40:48;2.60;76.00
41220;DHT22;26951;47.338;9.196;2022-12-07T11:43:34;2.60;76.20
41220;DHT22;26951;47.338;9.196;2022-12-07T11:46:22;2.60;75.70
41220;DHT22;26951;47.338;9.196;2022-12-07T11:49:25;2.70;75.50
41220;DHT22;26951;47.338;9.196;2022-12-07T11:55:27;2.80;74.60
41220;DHT22;26951;47.338;9.196;2022-12-07T12:01:35;2.80;76.40
41220;DHT22;26951;47.338;9.196;2022-12-07T12:07:26;2.90;74.90
41220;DHT22;26951;47.338;9.196;2022-12-07T12:16:37;3.00;76.10
41220;DHT22;26951;47.338;9.196;2022-12-07T12:19:40;3.00;75.60
41220;DHT22;26951;47.338;9.196;2022-12-07T12:22:41;3.10;74.10
41220;DHT22;26951;47.338;9.196;2022-12-07T12:25:29;3.10;72.80
41220;DHT22;26951;47.338;9.196;2022-12-07T12:28:40;3.10;72.70
41220;DHT22;26951;47.338;9.196;2022-12-07T12:31:35;3.10;72.10
41220;DHT22;26951;47.338;9.196;2022-12-07T12:34:34;3.10;70.60
41220;DHT22;26951;47.338;9.196;2022-12-07T12:55:10;2.90;70.20
41220;DHT22;26951;47.338;9.196;2022-12-07T13:01:38;2.90;70.10
41220;DHT22;26951;47.338;9.196;2022-12-07T13:04:24;2.80;70.00
41220;DHT22;26951;47.338;9.196;2022-12-07T13:07:12;2.80;69.60
41220;DHT22;26951;47.338;9.196;2022-12-07T13:09:57;2.80;69.70
41220;DHT22;26951;47.338;9.196;2022-12-07T13:12:41;2.80;69.60
41220;DHT22;26951;47.338;9.196;2022-12-07T13:23:59;2.70;69.80
41220;DHT22;26951;47.338;9.196;2022-12-07T13:26:44;2.70;69.60
41220;DHT22;26951;47.338;9.196;2022-12-07T13:29:36;2.70;70.20
41220;DHT22;26951;47.338;9.196;2022-12-07T13:32:27;2.70;69.80
41220;DHT22;26951;47.338;9.196;2022-12-07T13:35:33;2.70;70.20
41220;DHT22;26951;47.338;9.196;2022-12-07T13:38:28;2.70;70.20
41220;DHT22;26951;47.338;9.196;2022-12-07T13:41:18;2.70;70.50
41220;DHT22;26951;47.338;9.196;2022-12-07T13:44:12;2.70;70.40
41220;DHT22;26951;47.338;9.196;2022-12-07T13:49:55;2.60;69.90
41220;DHT22;26951;47.338;9.196;2022-12-07T13:52:44;2.60;70.10
41220;DHT22;26951;47.338;9.196;2022-12-07T13:55:29;2.60;70.00
41220;DHT22;26951;47.338;9.196;2022-12-07T13:58:13;2.60;69.80
41220;DHT22;26951;47.338;9.196;2022-12-07T14:00:59;2.60;70.00
41220;DHT22;26951;47.338;9.196;2022-12-07T14:03:43;2.60;69.90
41220;DHT22;26951;47.338;9.196;2022-12-07T14:06:27;2.60;70.10
41220;DHT22;26951;47.338;9.196;2022-12-07T14:09:23;2.50;69.80
41220;DHT22;26951;47.338;9.196;2022-12-07T14:12:08;2.50;69.90
41220;DHT22;26951;47.338;9.196;2022-12-07T14:14:53;2.50;70.00
41220;DHT22;26951;47.338;9.196;2022-12-07T14:17:50;2.50;70.50
41220;DHT22;26951;47.338;9.196;2022-12-07T14:20:37;2.50;70.90
41220;DHT22;26951;47.338;9.196;2022-12-07T14:23:25;2.50;70.80
41220;DHT22;26951;47.338;9.196;2022-12-07T14:26:13;2.50;70.40
41220;DHT22;26951;47.338;9.196;2022-12-07T14:32:26;2.50;69.90
41220;DHT22;26951;47.338;9.196;2022-12-07T14:35:16;2.40;70.50
41220;DHT22;26951;47.338;9.196;2022-12-07T14:38:01;2.40;71.20
41220;DHT22;26951;47.338;9.196;2022-12-07T14:40:45;2.40;71.70
41220;DHT22;26951;47.338;9.196;2022-12-07T14:43:29;2.40;72.20
41220;DHT22;26951;47.338;9.196;2022-12-07T14:46:13;2.40;72.10
41220;DHT22;26951;47.338;9.196;2022-12-07T14:48:57;2.40;72.50
41220;DHT22;26951;47.338;9.196;2022-12-07T14:51:42;2.40;72.00
41220;DHT22;26951;47.338;9.196;2022-12-07T14:54:31;2.40;72.00
41220;DHT22;26951;47.338;9.196;2022-12-07T14:57:16;2.30;71.90
41220;DHT22;26951;47.338;9.196;2022-12-07T15:00:00;2.30;71.70
41220;DHT22;26951;47.338;9.196;2022-12-07T15:02:45;2.30;71.50
41220;DHT22;26951;47.338;9.196;2022-12-07T15:05:30;2.30;71.00
41220;DHT22;26951;47.338;9.196;2022-12-07T15:08:14;2.30;71.00
41220;DHT22;26951;47.338;9.196;2022-12-07T15:10:58;2.30;70.90
41220;DHT22;26951;47.338;9.196;2022-12-07T15:13:43;2.30;71.40
41220;DHT22;26951;47.338;9.196;2022-12-07T15:16:46;2.30;70.70
41220;DHT22;26951;47.338;9.196;2022-12-07T15:19:30;2.30;70.70
41220;DHT22;26951;47.338;9.196;2022-12-07T15:22:14;2.30;70.90
41220;DHT22;26951;47.338;9.196;2022-12-07T15:24:58;2.30;70.70
41220;DHT22;26951;47.338;9.196;2022-12-07T15:27:42;2.30;70.50
41220;DHT22;26951;47.338;9.196;2022-12-07T15:30:26;2.30;70.70
41220;DHT22;26951;47.338;9.196;2022-12-07T15:33:11;2.30;70.70
41220;DHT22;26951;47.338;9.196;2022-12-07T15:35:59;2.30;70.60
41220;DHT22;26951;47.338;9.196;2022-12-07T15:38:43;2.20;70.50
41220;DHT22;26951;47.338;9.196;2022-12-07T15:41:27;2.20;70.30
41220;DHT22;26951;47.338;9.196;2022-12-07T15:44:12;2.30;70.20
41220;DHT22;26951;47.338;9.196;2022-12-07T15:47:26;2.20;69.90
41220;DHT22;26951;47.338;9.196;2022-12-07T15:50:13;2.20;69.90
41220;DHT22;26951;47.338;9.196;2022-12-07T15:52:57;2.20;70.20
41220;DHT22;26951;47.338;9.196;2022-12-07T15:55:42;2.20;70.60
41220;DHT22;26951;47.338;9.196;2022-12-07T15:58:26;2.30;70.80
41220;DHT22;26951;47.338;9.196;2022-12-07T16:01:11;2.30;71.00
41220;DHT22;26951;47.338;9.196;2022-12-07T16:03:57;2.20;70.70
41220;DHT22;26951;47.338;9.196;2022-12-07T16:06:41;2.20;70.00
41220;DHT22;26951;47.338;9.196;2022-12-07T16:09:25;2.20;70.50
41220;DHT22;26951;47.338;9.196;2022-12-07T16:12:11;2.20;70.50
41220;DHT22;26951;47.338;9.196;2022-12-07T16:14:56;2.20;70.80
41220;DHT22;26951;47.338;9.196;2022-12-07T16:17:40;2.20;71.30
41220;DHT22;26951;47.338;9.196;2022-12-07T16:20:24;2.20;71.90
41220;DHT22;26951;47.338;9.196;2022-12-07T16:23:09;2.20;72.10
41220;DHT22;26951;47.338;9.196;2022-12-07T16:25:53;2.20;72.00
41220;DHT22;26951;47.338;9.196;2022-12-07T16:28:38;2.20;72.10
41220;DHT22;26951;47.338;9.196;2022-12-07T16:31:24;2.20;71.80
41220;DHT22;26951;47.338;9.196;2022-12-07T16:34:08;2.20;72.10
41220;DHT22;26951;47.338;9.196;2022-12-07T16:36:52;2.20;72.60
41220;DHT22;26951;47.338;9.196;2022-12-07T16:39:36;2.10;73.10
41220;DHT22;26951;47.338;9.196;2022-12-07T16:42:21;2.10;73.50
41220;DHT22;26951;47.338;9.196;2022-12-07T16:45:05;2.10;73.60
41220;DHT22;26951;47.338;9.196;2022-12-07T16:47:50;2.10;73.90
41220;DHT22;26951;47.338;9.196;2022-12-07T16:50:34;2.00;74.50
41220;DHT22;26951;47.338;9.196;2022-12-07T16:53:17;2.10;74.90
41220;DHT22;26951;47.338;9.196;2022-12-07T16:56:02;2.10;74.70
41220;DHT22;26951;47.338;9.196;2022-12-07T16:58:46;2.10;74.80
41220;DHT22;26951;47.338;9.196;2022-12-07T17:01:32;2.00;74.90
41220;DHT22;26951;47.338;9.196;2022-12-07T17:04:18;2.00;75.10
41220;DHT22;26951;47.338;9.196;2022-12-07T17:07:02;2.10;74.90
41220;DHT22;26951;47.338;9.196;2022-12-07T17:09:46;2.00;75.20
41220;DHT22;26951;47.338;9.196;2022-12-07T17:12:30;2.00;75.70
41220;DHT22;26951;47.338;9.196;2022-12-07T17:15:14;2.00;75.70
41220;DHT22;26951;47.338;9.196;2022-12-07T17:18:02;2.00;75.30
41220;DHT22;26951;47.338;9.196;2022-12-07T17:20:46;2.00;74.70
41220;DHT22;26951;47.338;9.196;2022-12-07T17:23:30;2.00;74.60
41220;DHT22;26951;47.338;9.196;2022-12-07T17:26:23;2.00;74.40
41220;DHT22;26951;47.338;9.196;2022-12-07T17:29:08;2.00;74.60
41220;DHT22;26951;47.338;9.196;2022-12-07T17:31:53;2.00;74.60
41220;DHT22;26951;47.338;9.196;2022-12-07T17:34:37;2.00;74.10
41220;DHT22;26951;47.338;9.196;2022-12-07T17:37:21;2.00;74.40
41220;DHT22;26951;47.338;9.196;2022-12-07T17:40:06;2.00;74.60
41220;DHT22;26951;47.338;9.196;2022-12-07T17:42:50;2.00;74.20
41220;DHT22;26951;47.338;9.196;2022-12-07T17:45:36;2.00;74.30
41220;DHT22;26951;47.338;9.196;2022-12-07T17:48:20;2.00;74.30
41220;DHT22;26951;47.338;9.196;2022-12-07T17:51:04;2.00;74.10
41220;DHT22;26951;47.338;9.196;2022-12-07T17:54:08;2.00;74.30
41220;DHT22;26951;47.338;9.196;2022-12-07T17:56:52;2.00;74.20
41220;DHT22;26951;47.338;9.196;2022-12-07T17:59:36;2.00;74.20
41220;DHT22;26951;47.338;9.196;2022-12-07T18:02:20;2.00;73.90
41220;DHT22;26951;47.338;9.196;2022-12-07T18:05:05;2.00;73.60
41220;DHT22;26951;47.338;9.196;2022-12-07T18:07:50;1.90;74.00
41220;DHT22;26951;47.338;9.196;2022-12-07T18:10:35;1.90;74.40
41220;DHT22;26951;47.338;9.196;2022-12-07T18:13:19;1.90;74.50
41220;DHT22;26951;47.338;9.196;2022-12-07T18:16:22;1.90;73.90
41220;DHT22;26951;47.338;9.196;2022-12-07T18:19:07;1.90;73.50
41220;DHT22;26951;47.338;9.196;2022-12-07T18:21:52;1.90;73.90
41220;DHT22;26951;47.338;9.196;2022-12-07T18:24:36;1.90;74.50
41220;DHT22;26951;47.338;9.196;2022-12-07T18:27:21;1.90;74.00
41220;DHT22;26951;47.338;9.196;2022-12-07T18:30:06;1.90;73.60
41220;DHT22;26951;47.338;9.196;2022-12-07T18:32:50;1.90;74.10
41220;DHT22;26951;47.338;9.196;2022-12-07T18:35:34;1.90;74.40
41220;DHT22;26951;47.338;9.196;2022-12-07T18:38:20;1.90;74.80
41220;DHT22;26951;47.338;9.196;2022-12-07T18:41:06;1.90;74.50
41220;DHT22;26951;47.338;9.196;2022-12-07T18:43:51;1.90;73.90
41220;DHT22;26951;47.338;9.196;2022-12-07T18:46:35;1.90;74.20
41220;DHT22;26951;47.338;9.196;2022-12-07T18:49:20;1.90;74.60
41220;DHT22;26951;47.338;9.196;2022-12-07T18:52:05;1.90;74.80
41220;DHT22;26951;47.338;9.196;2022-12-07T18:54:49;1.90;74.80
41220;DHT22;26951;47.338;9.196;2022-12-07T18:57:33;1.90;74.80
41220;DHT22;26951;47.338;9.196;2022-12-07T19:00:18;1.90;74.40
41220;DHT22;26951;47.338;9.196;2022-12-07T19:03:02;1.90;73.00
41220;DHT22;26951;47.338;9.196;2022-12-07T19:05:46;1.90;73.40
41220;DHT22;26951;47.338;9.196;2022-12-07T19:08:30;1.90;73.90
41220;DHT22;26951;47.338;9.196;2022-12-07T19:11:23;1.90;74.80
41220;DHT22;26951;47.338;9.196;2022-12-07T19:14:31;1.80;74.70
41220;DHT22;26951;47.338;9.196;2022-12-07T19:17:15;1.90;74.60
41220;DHT22;26951;47.338;9.196;2022-12-07T19:19:59;1.90;74.40
41220;DHT22;26951;47.338;9.196;2022-12-07T19:22:44;1.90;74.40
41220;DHT22;26951;47.338;9.196;2022-12-07T19:25:28;1.80;73.60
41220;DHT22;26951;47.338;9.196;2022-12-07T19:28:13;1.80;73.80
41220;DHT22;26951;47.338;9.196;2022-12-07T19:30:56;1.80;74.40
41220;DHT22;26951;47.338;9.196;2022-12-07T19:33:40;1.80;74.70